HEPS 230700Z 05007KT 9999 SCT020 27/20 Q1012 NOSIG
From batch tds/metars/production/2022/9/23/h07_m55_metars.cache.csv.gz
Observed at (13 days ago)
Identifier HEPS
talk